createdAt,value
2023-01-13T00:03:25.503Z,2.38
2023-01-13T00:07:23.378Z,2.36
2023-01-13T00:11:21.313Z,2.35
2023-01-13T00:15:21.242Z,2.34
2023-01-13T00:19:19.280Z,2.33
2023-01-13T00:23:17.255Z,2.31
2023-01-13T00:27:15.273Z,2.30
2023-01-13T00:31:23.285Z,2.29
2023-01-13T00:35:21.298Z,2.28
2023-01-13T00:39:19.188Z,2.28
2023-01-13T00:43:37.302Z,2.29
2023-01-13T00:47:35.510Z,2.31
2023-01-13T00:51:36.222Z,2.32
2023-01-13T00:55:34.240Z,2.33
2023-01-13T00:59:32.205Z,2.33
2023-01-13T01:03:30.343Z,2.33
2023-01-13T01:07:28.231Z,2.32
2023-01-13T01:11:30.235Z,2.29
2023-01-13T01:15:28.183Z,2.27
2023-01-13T01:19:26.144Z,2.26
2023-01-13T01:23:24.212Z,2.24
2023-01-13T01:27:22.149Z,2.24
2023-01-13T01:31:38.189Z,2.26
2023-01-13T01:35:36.160Z,2.25
2023-01-13T01:39:34.140Z,2.24
2023-01-13T01:43:53.232Z,2.24
2023-01-13T01:47:51.200Z,2.24
2023-01-13T01:52:01.122Z,2.24
2023-01-13T01:55:59.164Z,2.25
2023-01-13T01:59:57.108Z,2.24
2023-01-13T02:04:12.101Z,2.23
2023-01-13T02:08:12.085Z,2.24
2023-01-13T02:12:27.144Z,2.23
2023-01-13T02:16:32.163Z,2.23
2023-01-13T02:20:48.207Z,2.23
2023-01-13T02:25:04.110Z,2.25
2023-01-13T02:29:41.093Z,2.24
2023-01-13T02:33:56.062Z,2.22
2023-01-13T02:37:58.060Z,2.21
2023-01-13T02:42:23.092Z,2.22
2023-01-13T02:46:31.080Z,2.25
2023-01-13T02:50:33.052Z,2.30
2023-01-13T02:54:37.026Z,2.34
2023-01-13T02:58:40.076Z,2.40
2023-01-13T03:02:40.140Z,2.44
2023-01-13T03:06:52.050Z,2.47
2023-01-13T03:11:09.128Z,2.48
2023-01-13T03:15:33.118Z,2.48
2023-01-13T03:19:52.036Z,2.48
2023-01-13T03:23:59.083Z,2.48
2023-01-13T03:28:09.060Z,2.49
2023-01-13T03:32:14.080Z,2.50
2023-01-13T03:36:17.075Z,2.54
2023-01-13T03:40:21.106Z,2.61
2023-01-13T03:44:32.797Z,2.70
2023-01-13T03:48:34.973Z,2.80
2023-01-13T03:52:43.080Z,2.89
2023-01-13T03:56:56.963Z,2.97
2023-01-13T04:01:05.027Z,3.05
2023-01-13T04:05:12.954Z,3.13
2023-01-13T04:09:19.036Z,3.22
2023-01-13T04:13:22.953Z,3.30
2023-01-13T04:17:20.940Z,3.38
2023-01-13T04:21:19.941Z,3.46
2023-01-13T04:25:18.025Z,3.52
2023-01-13T04:29:15.961Z,3.59
2023-01-13T04:33:13.944Z,3.66
2023-01-13T04:37:11.940Z,3.72
2023-01-13T04:41:09.887Z,3.79
2023-01-13T04:45:07.921Z,3.85
2023-01-13T04:49:05.897Z,3.92
2023-01-13T04:53:08.989Z,3.97
2023-01-13T04:57:06.974Z,4.03
2023-01-13T05:01:05.878Z,4.07
2023-01-13T05:05:03.876Z,4.12
2023-01-13T05:09:01.931Z,4.15
2023-01-13T05:13:17.949Z,4.20
2023-01-13T05:17:15.908Z,4.24
2023-01-13T05:21:33.884Z,4.28
2023-01-13T05:25:32.832Z,4.31
2023-01-13T05:29:32.966Z,4.36
2023-01-13T05:33:34.996Z,4.41
2023-01-13T05:37:33.870Z,4.45
2023-01-13T05:41:48.837Z,4.49
2023-01-13T05:45:46.915Z,4.53
2023-01-13T05:49:44.904Z,4.56
2023-01-13T05:53:42.830Z,4.59
2023-01-13T05:57:40.853Z,4.62
2023-01-13T06:01:38.832Z,4.64
2023-01-13T06:05:36.812Z,4.64
2023-01-13T06:09:34.771Z,4.65
2023-01-13T06:13:34.815Z,4.67
2023-01-13T06:17:32.897Z,4.69
2023-01-13T06:21:33.041Z,4.71
2023-01-13T06:26:10.842Z,4.73
2023-01-13T06:30:08.761Z,4.77
2023-01-13T06:34:21.852Z,4.80
2023-01-13T06:38:23.750Z,4.83
2023-01-13T06:42:39.017Z,4.86
2023-01-13T06:46:16.326Z,4.88
2023-01-13T06:49:40.417Z,4.92
2023-01-13T06:53:06.821Z,4.94
2023-01-13T06:56:30.710Z,4.97
2023-01-13T06:59:55.456Z,5.01
2023-01-13T07:03:20.305Z,5.05
2023-01-13T07:06:44.195Z,5.08
2023-01-13T07:10:10.006Z,5.13
2023-01-13T07:13:54.294Z,5.19
2023-01-13T07:17:25.506Z,5.24
2023-01-13T07:20:57.059Z,5.30
2023-01-13T07:24:22.548Z,5.37
2023-01-13T07:27:46.594Z,5.47
2023-01-13T07:31:28.811Z,5.57
2023-01-13T07:34:52.735Z,5.70
2023-01-13T07:38:17.261Z,5.78
2023-01-13T07:41:57.658Z,5.85
2023-01-13T07:45:21.679Z,5.91
2023-01-13T07:48:45.743Z,5.99
2023-01-13T07:52:09.979Z,6.09
2023-01-13T07:55:34.180Z,6.22
2023-01-13T07:59:00.709Z,6.39
2023-01-13T08:02:24.920Z,6.53
2023-01-13T08:05:49.645Z,6.64
2023-01-13T08:09:13.676Z,6.74
2023-01-13T08:12:56.926Z,6.83
2023-01-13T08:16:21.090Z,6.90
2023-01-13T08:19:45.086Z,6.96
2023-01-13T08:23:09.033Z,6.96
2023-01-13T08:26:32.903Z,6.94
2023-01-13T08:29:57.229Z,6.95
2023-01-13T08:33:21.452Z,6.95
2023-01-13T08:36:45.402Z,6.98
2023-01-13T08:40:10.040Z,7.00
2023-01-13T08:43:34.185Z,7.03
2023-01-13T08:46:58.983Z,7.05
2023-01-13T08:50:23.076Z,7.04
2023-01-13T08:53:47.116Z,7.05
2023-01-13T08:57:11.122Z,7.06
2023-01-13T09:00:35.333Z,7.09
2023-01-13T09:03:59.389Z,7.09
2023-01-13T09:07:23.384Z,7.08
2023-01-13T09:10:47.263Z,7.09
2023-01-13T09:14:11.159Z,7.09
2023-01-13T09:17:35.175Z,7.12
2023-01-13T09:21:00.189Z,7.17
2023-01-13T09:24:25.197Z,7.22
2023-01-13T09:27:49.070Z,7.24
2023-01-13T09:31:12.974Z,7.26
2023-01-13T09:34:54.605Z,7.28
2023-01-13T09:38:18.467Z,7.33
2023-01-13T09:42:02.863Z,7.36
2023-01-13T09:45:52.416Z,7.42
2023-01-13T09:49:23.094Z,7.46
2023-01-13T09:52:47.075Z,7.54
2023-01-13T09:56:12.308Z,7.61
2023-01-13T09:59:37.013Z,7.70
2023-01-13T10:03:30.702Z,7.79
2023-01-13T10:07:00.078Z,7.87
2023-01-13T10:10:38.161Z,7.94
2023-01-13T10:14:16.322Z,7.98
2023-01-13T10:17:44.129Z,8.03
2023-01-13T10:22:00.333Z,8.06
2023-01-13T10:25:52.130Z,8.10
2023-01-13T10:29:26.214Z,8.14
2023-01-13T10:32:57.413Z,8.17
2023-01-13T10:36:23.178Z,8.18
2023-01-13T10:39:48.232Z,8.18
2023-01-13T10:43:12.253Z,8.21
2023-01-13T10:46:53.240Z,8.22
2023-01-13T10:50:17.178Z,8.25
2023-01-13T10:53:56.042Z,8.29
2023-01-13T10:57:22.808Z,8.31
2023-01-13T11:00:47.926Z,8.36
2023-01-13T11:04:27.922Z,8.41
2023-01-13T11:07:56.474Z,8.44
2023-01-13T11:11:41.075Z,8.47
2023-01-13T11:15:11.031Z,8.53
2023-01-13T11:18:34.889Z,8.57
2023-01-13T11:22:18.580Z,8.63
2023-01-13T11:25:46.061Z,8.70
2023-01-13T11:29:21.797Z,8.75
2023-01-13T11:33:18.623Z,8.78
2023-01-13T11:36:47.521Z,8.84
2023-01-13T11:40:37.620Z,8.89
2023-01-13T11:44:19.964Z,8.90
2023-01-13T11:47:46.893Z,8.89
2023-01-13T11:51:44.556Z,8.87
2023-01-13T11:55:17.240Z,8.87
2023-01-13T11:58:59.316Z,8.85
2023-01-13T12:02:33.550Z,8.81
2023-01-13T12:06:36.000Z,8.77
2023-01-13T12:10:13.262Z,8.73
2023-01-13T12:13:52.377Z,8.72
2023-01-13T12:17:28.698Z,8.69
2023-01-13T12:21:21.851Z,8.64
2023-01-13T12:25:25.410Z,8.57
2023-01-13T12:29:19.442Z,8.50
2023-01-13T12:32:47.728Z,8.46
2023-01-13T12:36:30.287Z,8.43
2023-01-13T12:40:05.365Z,8.42
2023-01-13T12:43:46.978Z,8.41
2023-01-13T12:47:35.501Z,8.39
2023-01-13T12:51:01.739Z,8.36
2023-01-13T12:54:54.922Z,8.34
2023-01-13T12:58:25.651Z,8.30
2023-01-13T13:02:11.352Z,8.25
2023-01-13T13:05:46.091Z,8.23
2023-01-13T13:09:29.568Z,8.17
2023-01-13T13:13:12.974Z,8.15
2023-01-13T13:16:51.797Z,8.14
2023-01-13T13:20:55.284Z,8.14
2023-01-13T13:24:19.446Z,8.11
2023-01-13T13:28:07.328Z,8.09
2023-01-13T13:31:46.293Z,8.08
2023-01-13T13:35:44.023Z,8.07
2023-01-13T13:39:45.295Z,8.04
2023-01-13T13:43:31.383Z,8.02
2023-01-13T13:47:00.369Z,8.00
2023-01-13T13:50:24.472Z,7.98
2023-01-13T13:53:48.958Z,7.95
2023-01-13T13:57:19.119Z,7.93
2023-01-13T14:00:49.158Z,7.91
2023-01-13T14:04:23.254Z,7.89
2023-01-13T14:07:50.156Z,7.87
2023-01-13T14:11:42.275Z,7.82
2023-01-13T14:15:06.673Z,7.76
2023-01-13T14:18:34.764Z,7.70
2023-01-13T14:22:01.964Z,7.62
2023-01-13T14:25:33.668Z,7.56
2023-01-13T14:29:02.913Z,7.49
2023-01-13T14:32:52.147Z,7.43
2023-01-13T14:36:54.055Z,7.36
2023-01-13T14:40:53.053Z,7.31
2023-01-13T14:44:51.050Z,7.26
2023-01-13T14:48:54.070Z,7.19
2023-01-13T14:53:07.057Z,7.13
2023-01-13T14:57:07.041Z,7.06
2023-01-13T15:01:06.058Z,7.00
2023-01-13T15:05:06.140Z,6.93
2023-01-13T15:09:04.015Z,6.86
2023-01-13T15:13:05.987Z,6.80
2023-01-13T15:17:03.978Z,6.75
2023-01-13T15:21:02.056Z,6.70
2023-01-13T15:25:05.070Z,6.64
2023-01-13T15:29:04.031Z,6.57
2023-01-13T15:33:02.083Z,6.52
2023-01-13T15:37:02.132Z,6.48
2023-01-13T15:41:01.991Z,6.47
2023-01-13T15:45:18.087Z,6.46
2023-01-13T15:49:19.969Z,6.46
2023-01-13T15:53:18.041Z,6.45
2023-01-13T15:57:16.007Z,6.43
2023-01-13T16:01:14.091Z,6.42
2023-01-13T16:05:11.909Z,6.39
2023-01-13T16:09:09.962Z,6.34
2023-01-13T16:13:11.321Z,6.31
2023-01-13T16:17:08.984Z,6.26
2023-01-13T16:21:07.907Z,6.21
2023-01-13T16:25:05.981Z,6.17
2023-01-13T16:29:04.998Z,6.14
2023-01-13T16:33:03.037Z,6.12
2023-01-13T16:37:00.945Z,6.11
2023-01-13T16:40:59.098Z,6.10
2023-01-13T16:44:56.932Z,6.11
2023-01-13T16:48:55.134Z,6.11
2023-01-13T16:52:53.041Z,6.10
2023-01-13T16:56:51.003Z,6.09
2023-01-13T17:00:49.025Z,6.08
2023-01-13T17:04:46.953Z,6.07
2023-01-13T17:08:45.031Z,6.06
2023-01-13T17:12:43.012Z,6.04
2023-01-13T17:16:40.925Z,6.04
2023-01-13T17:20:39.000Z,6.02
2023-01-13T17:24:37.893Z,6.02
2023-01-13T17:28:35.914Z,6.03
2023-01-13T17:32:35.909Z,6.02
2023-01-13T17:36:33.936Z,6.02
2023-01-13T17:40:31.916Z,6.03
2023-01-13T17:44:34.910Z,6.05
2023-01-13T17:48:32.912Z,6.06
2023-01-13T17:52:30.989Z,6.06
2023-01-13T17:56:30.925Z,6.06
2023-01-13T18:00:28.928Z,6.07
2023-01-13T18:04:31.849Z,6.07
2023-01-13T18:08:30.900Z,6.07
2023-01-13T18:12:28.866Z,6.09
2023-01-13T18:16:30.456Z,6.09
2023-01-13T18:20:45.916Z,6.09
2023-01-13T18:25:00.923Z,6.10
2023-01-13T18:28:58.803Z,6.11
2023-01-13T18:32:56.960Z,6.12
2023-01-13T18:36:55.853Z,6.14
2023-01-13T18:40:53.832Z,6.15
2023-01-13T18:44:51.815Z,6.15
2023-01-13T18:48:49.811Z,6.16
2023-01-13T18:52:47.879Z,6.17
2023-01-13T18:56:46.061Z,6.17
2023-01-13T19:00:43.837Z,6.18
2023-01-13T19:04:44.116Z,6.18
2023-01-13T19:08:41.776Z,6.19
2023-01-13T19:12:40.786Z,6.19
2023-01-13T19:16:38.749Z,6.20
2023-01-13T19:20:36.798Z,6.21
2023-01-13T19:24:34.775Z,6.21
2023-01-13T19:28:33.159Z,6.22
2023-01-13T19:32:30.956Z,6.21
2023-01-13T19:36:28.766Z,6.21
2023-01-13T19:40:26.719Z,6.21
2023-01-13T19:44:43.751Z,6.19
2023-01-13T19:48:41.716Z,6.17
2023-01-13T19:52:39.770Z,6.12
2023-01-13T19:56:37.718Z,6.08
2023-01-13T20:00:35.738Z,6.06
2023-01-13T20:04:40.672Z,6.02
2023-01-13T20:08:38.726Z,5.99
2023-01-13T20:12:36.676Z,5.95
2023-01-13T20:16:34.905Z,5.93
2023-01-13T20:20:32.676Z,5.92
2023-01-13T20:24:32.703Z,5.91
2023-01-13T20:28:30.656Z,5.90
2023-01-13T20:32:29.957Z,5.88
2023-01-13T20:36:45.726Z,5.88
2023-01-13T20:40:45.803Z,5.87
2023-01-13T20:44:43.638Z,5.86
2023-01-13T20:48:42.715Z,5.84
2023-01-13T20:52:40.711Z,5.85
2023-01-13T20:56:39.690Z,5.84
2023-01-13T21:00:37.681Z,5.85
2023-01-13T21:04:40.043Z,5.84
2023-01-13T21:08:37.625Z,5.84
2023-01-13T21:12:53.625Z,5.84
2023-01-13T21:16:51.604Z,5.84
2023-01-13T21:20:51.639Z,5.84
2023-01-13T21:24:50.636Z,5.84
2023-01-13T21:28:48.616Z,5.84
2023-01-13T21:32:46.580Z,5.84
2023-01-13T21:36:44.983Z,5.83
2023-01-13T21:40:42.586Z,5.81
2023-01-13T21:44:58.667Z,5.82
2023-01-13T21:48:58.589Z,5.81
2023-01-13T21:52:56.550Z,5.81
2023-01-13T21:56:54.635Z,5.82
2023-01-13T22:00:56.723Z,5.82
2023-01-13T22:04:55.584Z,5.83
2023-01-13T22:08:53.637Z,5.85
2023-01-13T22:12:51.527Z,5.87
2023-01-13T22:16:55.551Z,5.90
2023-01-13T22:20:53.522Z,5.92
2023-01-13T22:24:51.590Z,5.93
2023-01-13T22:28:51.847Z,5.94
2023-01-13T22:32:50.630Z,5.95
2023-01-13T22:36:49.509Z,5.95
2023-01-13T22:40:47.623Z,5.96
2023-01-13T22:44:45.575Z,5.97
2023-01-13T22:48:43.520Z,5.97
2023-01-13T22:52:45.594Z,5.97
2023-01-13T22:56:44.468Z,5.97
2023-01-13T23:00:43.504Z,5.95
2023-01-13T23:04:41.590Z,5.92
2023-01-13T23:08:39.448Z,5.89
2023-01-13T23:12:38.517Z,5.87
2023-01-13T23:16:37.525Z,5.86
2023-01-13T23:20:35.542Z,5.83
2023-01-13T23:24:35.472Z,5.80
2023-01-13T23:28:33.483Z,5.79
2023-01-13T23:32:32.470Z,5.78
2023-01-13T23:36:38.432Z,5.77
2023-01-13T23:40:36.382Z,5.76
2023-01-13T23:44:34.475Z,5.74
2023-01-13T23:48:32.401Z,5.74
2023-01-13T23:52:36.632Z,5.74
2023-01-13T23:56:39.653Z,5.75
